createdAt,value
2024-01-21T00:02:35.292Z,9.9
2024-01-21T00:07:35.303Z,11.7
2024-01-21T00:12:35.319Z,12.9
2024-01-21T00:17:35.316Z,11.0
2024-01-21T00:22:35.289Z,10.9
2024-01-21T00:27:35.299Z,9.7
2024-01-21T00:32:35.452Z,10.0
2024-01-21T00:37:35.296Z,10.3
2024-01-21T00:42:35.310Z,10.1
2024-01-21T00:47:35.325Z,9.0
2024-01-21T00:52:35.524Z,8.4
2024-01-21T00:57:35.300Z,10.2
2024-01-21T01:02:35.305Z,8.7
2024-01-21T01:07:35.307Z,8.6
2024-01-21T01:12:35.314Z,9.6
2024-01-21T01:17:35.353Z,11.4
2024-01-21T01:22:35.314Z,10.3
2024-01-21T01:27:35.323Z,9.6
2024-01-21T01:32:35.321Z,9.5
2024-01-21T01:37:35.316Z,8.5
2024-01-21T01:42:35.413Z,8.3
2024-01-21T01:47:35.353Z,7.7
2024-01-21T01:52:35.320Z,7.8
2024-01-21T01:57:35.348Z,12.4
2024-01-21T02:02:35.317Z,7.8
2024-01-21T02:07:35.311Z,7.5
2024-01-21T02:12:35.364Z,6.2
2024-01-21T02:17:35.413Z,6.2
2024-01-21T02:22:35.314Z,7.6
2024-01-21T02:27:35.352Z,6.9
2024-01-21T02:32:35.375Z,6.9
2024-01-21T02:37:35.315Z,8.0
2024-01-21T02:42:35.359Z,6.6
2024-01-21T02:47:35.361Z,7.2
2024-01-21T02:52:35.359Z,5.6
2024-01-21T02:57:35.337Z,8.0
2024-01-21T03:02:35.375Z,5.4
2024-01-21T03:07:35.338Z,6.0
2024-01-21T03:12:35.342Z,7.8
2024-01-21T03:17:35.365Z,5.8
2024-01-21T03:22:35.345Z,6.6
2024-01-21T03:27:35.378Z,5.0
2024-01-21T03:32:35.425Z,5.3
2024-01-21T03:37:35.329Z,4.8
2024-01-21T03:42:35.364Z,5.4
2024-01-21T03:47:35.403Z,4.4
2024-01-21T03:52:35.336Z,5.3
2024-01-21T03:57:35.359Z,4.7
2024-01-21T04:02:35.341Z,4.5
2024-01-21T04:07:35.351Z,4.8
2024-01-21T04:12:35.407Z,5.2
2024-01-21T04:17:35.429Z,6.4
2024-01-21T04:22:35.354Z,5.4
2024-01-21T04:27:35.400Z,4.2
2024-01-21T04:32:35.366Z,7.0
2024-01-21T04:37:35.357Z,5.5
2024-01-21T04:42:35.381Z,4.4
2024-01-21T04:47:35.367Z,6.4
2024-01-21T04:52:35.348Z,4.8
2024-01-21T04:57:35.344Z,4.6
2024-01-21T05:02:35.354Z,5.5
2024-01-21T05:07:35.352Z,5.7
2024-01-21T05:12:35.413Z,4.8
2024-01-21T05:17:35.449Z,5.5
2024-01-21T05:27:35.495Z,3.3
2024-01-21T05:32:35.387Z,4.9
2024-01-21T05:37:35.371Z,4.1
2024-01-21T05:42:35.317Z,3.9
2024-01-21T05:47:35.292Z,4.9
2024-01-21T05:52:35.319Z,4.6
2024-01-21T05:57:35.338Z,6.6
2024-01-21T06:02:35.291Z,5.1
2024-01-21T06:07:35.295Z,5.3
2024-01-21T06:12:35.308Z,6.0
2024-01-21T06:17:35.547Z,8.5
2024-01-21T06:22:35.331Z,7.8
2024-01-21T06:27:35.332Z,7.9
2024-01-21T06:32:35.325Z,7.7
2024-01-21T06:37:35.315Z,7.0
2024-01-21T06:47:35.451Z,6.5
2024-01-21T06:52:35.300Z,6.1
2024-01-21T06:57:35.498Z,7.3
2024-01-21T07:02:35.303Z,7.1
2024-01-21T07:07:35.300Z,7.5
2024-01-21T07:12:35.373Z,7.3
2024-01-21T07:17:35.452Z,6.5
2024-01-21T07:22:35.322Z,7.4
2024-01-21T07:27:35.716Z,6.4
2024-01-21T07:32:35.482Z,6.4
2024-01-21T07:37:35.321Z,9.8
2024-01-21T07:42:35.647Z,6.2
2024-01-21T07:47:35.470Z,7.6
2024-01-21T07:52:35.422Z,6.8
2024-01-21T07:57:35.427Z,6.6
2024-01-21T08:02:35.422Z,6.3
2024-01-21T08:07:35.327Z,6.7
2024-01-21T08:12:35.500Z,6.6
2024-01-21T08:17:35.473Z,6.7
2024-01-21T08:22:35.641Z,7.1
2024-01-21T08:27:35.441Z,6.1
2024-01-21T08:32:35.440Z,5.0
2024-01-21T08:37:35.437Z,6.3
2024-01-21T08:42:35.478Z,7.2
2024-01-21T08:47:35.509Z,6.6
2024-01-21T08:52:35.425Z,6.1
2024-01-21T08:57:35.498Z,6.5
2024-01-21T09:02:35.428Z,8.5
2024-01-21T09:07:35.439Z,5.8
2024-01-21T09:12:35.502Z,6.0
2024-01-21T09:17:35.563Z,6.1
2024-01-21T09:22:35.466Z,7.0
2024-01-21T09:27:35.477Z,6.6
2024-01-21T09:32:35.466Z,6.0
2024-01-21T09:37:35.453Z,9.7
2024-01-21T09:42:35.487Z,6.2
2024-01-21T09:47:35.504Z,6.1
2024-01-21T09:52:35.691Z,5.5
2024-01-21T09:57:35.543Z,6.7
2024-01-21T10:02:35.687Z,7.4
2024-01-21T10:07:35.459Z,6.6
2024-01-21T10:12:35.547Z,6.6
2024-01-21T10:17:35.491Z,5.5
2024-01-21T10:22:35.470Z,7.6
2024-01-21T10:32:35.501Z,6.7
2024-01-21T10:37:35.475Z,6.6
2024-01-21T10:42:35.505Z,8.3
2024-01-21T10:47:35.495Z,5.8
2024-01-21T10:52:35.487Z,7.9
2024-01-21T10:57:35.553Z,6.9
2024-01-21T11:02:35.485Z,7.0
2024-01-21T11:07:35.478Z,8.0
2024-01-21T11:12:35.577Z,6.4
2024-01-21T11:17:35.528Z,6.9
2024-01-21T11:22:35.483Z,6.2
2024-01-21T11:27:35.523Z,7.4
2024-01-21T11:32:35.629Z,6.5
2024-01-21T11:37:35.487Z,6.6
2024-01-21T11:42:35.571Z,7.5
2024-01-21T11:47:35.522Z,6.2
2024-01-21T11:52:35.492Z,7.3
2024-01-21T11:57:35.535Z,8.5
2024-01-21T12:02:35.497Z,7.6
2024-01-21T12:07:35.616Z,8.2
2024-01-21T12:12:35.535Z,8.0
2024-01-21T12:17:35.544Z,6.1
2024-01-21T12:22:35.513Z,7.0
2024-01-21T12:27:35.544Z,6.9
2024-01-21T12:32:39.382Z,5.9
2024-01-21T12:37:35.524Z,5.3
2024-01-21T12:42:35.534Z,6.6
2024-01-21T12:47:35.527Z,8.8
2024-01-21T12:52:35.509Z,6.8
2024-01-21T12:57:35.554Z,9.5
2024-01-21T13:02:35.513Z,6.8
2024-01-21T13:07:35.563Z,6.7
2024-01-21T13:12:35.549Z,6.4
2024-01-21T13:17:35.546Z,8.0
2024-01-21T13:22:35.518Z,7.4
2024-01-21T13:27:35.568Z,9.8
2024-01-21T13:32:36.004Z,7.8
2024-01-21T13:37:35.544Z,6.6
2024-01-21T13:42:35.604Z,7.6
2024-01-21T13:47:35.558Z,8.9
2024-01-21T13:52:35.537Z,6.9
2024-01-21T13:57:35.580Z,7.3
2024-01-21T14:02:35.546Z,8.2
2024-01-21T14:07:37.461Z,7.5
2024-01-21T14:12:35.573Z,8.1
2024-01-21T14:17:35.578Z,7.3
2024-01-21T14:27:35.580Z,6.8
2024-01-21T14:32:35.591Z,8.4
2024-01-21T14:37:35.561Z,7.1
2024-01-21T14:42:35.595Z,7.5
2024-01-21T14:47:35.668Z,8.3
2024-01-21T14:52:35.557Z,7.4
2024-01-21T14:57:35.594Z,7.3
2024-01-21T15:02:35.560Z,8.0
2024-01-21T15:07:35.561Z,6.8
2024-01-21T15:12:35.610Z,5.2
2024-01-21T15:22:35.563Z,9.6
2024-01-21T15:27:35.641Z,7.4
2024-01-21T15:32:35.620Z,7.1
2024-01-21T15:37:35.593Z,5.5
2024-01-21T15:42:35.601Z,6.1
2024-01-21T15:47:35.606Z,5.9
2024-01-21T15:52:35.572Z,7.8
2024-01-21T15:57:35.752Z,10.8
2024-01-21T16:02:35.685Z,7.5
2024-01-21T16:07:35.593Z,8.0
2024-01-21T16:12:35.597Z,6.7
2024-01-21T16:17:35.631Z,8.2
2024-01-21T16:22:35.578Z,10.4
2024-01-21T16:27:35.631Z,10.4
2024-01-21T16:32:35.616Z,8.7
2024-01-21T16:37:35.634Z,7.8
2024-01-21T16:42:35.642Z,8.6
2024-01-21T16:47:35.622Z,8.1
2024-01-21T16:52:35.593Z,8.3
2024-01-21T16:57:35.645Z,14.5
2024-01-21T17:02:35.601Z,8.6
2024-01-21T17:07:36.534Z,8.0
2024-01-21T17:12:35.594Z,8.7
2024-01-21T17:17:35.685Z,8.4
2024-01-21T17:22:35.599Z,8.4
2024-01-21T17:27:35.610Z,9.2
2024-01-21T17:32:35.765Z,9.5
2024-01-21T17:37:35.627Z,8.7
2024-01-21T17:42:35.618Z,9.0
2024-01-21T17:47:35.677Z,8.0
2024-01-21T17:52:35.605Z,10.6
2024-01-21T17:57:35.606Z,8.5
2024-01-21T18:02:35.650Z,9.6
2024-01-21T18:07:35.614Z,9.3
2024-01-21T18:12:35.614Z,8.0
2024-01-21T18:17:35.743Z,8.3
2024-01-21T18:22:35.613Z,8.8
2024-01-21T18:27:35.679Z,11.5
2024-01-21T18:32:35.672Z,9.4
2024-01-21T18:37:35.661Z,6.0
2024-01-21T18:42:35.627Z,7.2
2024-01-21T18:47:35.707Z,9.4
2024-01-21T18:52:35.631Z,8.6
2024-01-21T18:57:35.647Z,5.9
2024-01-21T19:02:35.671Z,11.1
2024-01-21T19:07:39.079Z,7.6
2024-01-21T19:12:35.639Z,7.9
2024-01-21T19:17:35.740Z,7.9
2024-01-21T19:22:35.649Z,9.8
2024-01-21T19:27:35.643Z,14.5
2024-01-21T19:32:35.722Z,9.3
2024-01-21T19:37:35.658Z,8.4
2024-01-21T19:42:35.650Z,8.7
2024-01-21T19:47:35.726Z,13.0
2024-01-21T19:52:35.643Z,8.0
2024-01-21T19:57:35.658Z,9.3
2024-01-21T20:02:35.675Z,7.8
2024-01-21T20:07:35.663Z,10.7
2024-01-21T20:12:35.659Z,9.5
2024-01-21T20:17:35.746Z,8.3
2024-01-21T20:22:35.693Z,8.0
2024-01-21T20:27:35.658Z,8.4
2024-01-21T20:32:35.767Z,7.2
2024-01-21T20:37:35.663Z,6.9
2024-01-21T20:42:35.668Z,7.9
2024-01-21T20:47:35.709Z,7.7
2024-01-21T20:52:35.669Z,8.0
2024-01-21T20:57:35.666Z,8.4
2024-01-21T21:02:35.706Z,6.9
2024-01-21T21:07:35.682Z,7.9
2024-01-21T21:12:35.683Z,8.4
2024-01-21T21:17:35.732Z,6.2
2024-01-21T21:22:36.965Z,8.2
2024-01-21T21:27:35.684Z,7.3
2024-01-21T21:32:35.793Z,8.4
2024-01-21T21:37:35.713Z,11.0
2024-01-21T21:42:35.688Z,7.1
2024-01-21T21:47:35.739Z,7.7
2024-01-21T21:52:35.689Z,8.3
2024-01-21T21:57:35.700Z,5.7
2024-01-21T22:02:35.743Z,6.9
2024-01-21T22:07:35.725Z,7.7
2024-01-21T22:12:35.720Z,5.2
2024-01-21T22:17:35.786Z,6.7
2024-01-21T22:22:35.720Z,7.5
2024-01-21T22:27:35.714Z,5.7
2024-01-21T22:32:35.800Z,7.6
2024-01-21T22:37:35.718Z,5.7
2024-01-21T22:42:35.719Z,7.0
2024-01-21T22:47:35.799Z,4.1
2024-01-21T22:52:35.732Z,4.5
2024-01-21T22:57:35.730Z,5.6
2024-01-21T23:02:35.836Z,4.1
2024-01-21T23:07:35.726Z,4.2
2024-01-21T23:12:35.732Z,4.2
2024-01-21T23:17:35.853Z,5.3
2024-01-21T23:22:35.776Z,5.3
2024-01-21T23:27:35.732Z,8.0
2024-01-21T23:32:35.840Z,3.1
2024-01-21T23:37:35.732Z,3.4
2024-01-21T23:42:35.742Z,3.4
2024-01-21T23:47:35.846Z,3.6
2024-01-21T23:52:35.758Z,2.9
2024-01-21T23:57:35.749Z,2.9
